createdAt,value
2022-11-09T16:18:57.717Z,100257.22
2022-11-09T16:21:24.499Z,100247.66
2022-11-09T16:23:57.117Z,100256.12
2022-11-09T16:26:25.111Z,100246.91
2022-11-09T16:28:51.640Z,100253.41
2022-11-09T16:31:25.280Z,100255.53
2022-11-09T16:34:01.757Z,100251.72
2022-11-09T16:36:28.933Z,100257.81
2022-11-09T16:38:57.036Z,100254.28
2022-11-09T16:41:25.145Z,100258.16
2022-11-09T16:43:53.648Z,100257.13
2022-11-09T16:46:43.789Z,100259.53
2022-11-09T16:49:10.387Z,100263.81
2022-11-09T16:51:37.054Z,100250.13
2022-11-09T16:54:03.987Z,100258.59
2022-11-09T16:56:32.766Z,100256.53
2022-11-09T16:59:00.618Z,100259.94
2022-11-09T17:56:54.888Z,100266.28
2022-11-09T17:59:21.454Z,100260.25
2022-11-09T18:01:48.363Z,100264.81
2022-11-09T18:04:14.925Z,100258.88
2022-11-09T18:06:41.563Z,100250.75
2022-11-09T18:17:41.704Z,100250.91
2022-11-09T18:20:08.581Z,100244.63
2022-11-09T18:22:35.383Z,100251.22
2022-11-09T18:25:01.933Z,100247.63
2022-11-09T18:32:59.300Z,100246.47
2022-11-09T18:35:25.837Z,100245.59
2022-11-09T18:37:52.459Z,100241.94
2022-11-09T18:44:22.022Z,100245.22
2022-11-09T18:46:48.691Z,100241.69
2022-11-09T18:49:15.267Z,100243.94
2022-11-09T18:51:43.348Z,100238.00
2022-11-09T18:54:09.874Z,100242.44
2022-11-09T18:56:36.463Z,100247.63
2022-11-09T18:59:03.093Z,100247.78
2022-11-09T19:01:29.737Z,100246.69
2022-11-09T19:03:59.556Z,100239.31
2022-11-09T19:06:26.932Z,100241.06
2022-11-09T19:09:12.298Z,100249.34
2022-11-09T19:11:39.091Z,100242.69
2022-11-09T19:14:28.315Z,100248.84
2022-11-09T19:16:55.260Z,100245.41
2022-11-09T19:19:22.236Z,100255.66
2022-11-09T19:29:40.642Z,100247.19
2022-11-09T19:32:07.275Z,100255.06
2022-11-09T19:46:04.627Z,100259.06
2022-11-09T19:48:35.090Z,100248.81
2022-11-09T19:53:42.070Z,100247.59
2022-11-09T19:56:09.622Z,100250.47
2022-11-09T20:19:56.625Z,100259.19
2022-11-09T20:22:23.188Z,100254.75
2022-11-09T20:30:08.195Z,100249.78
2022-11-09T20:32:43.783Z,100245.81
2022-11-09T20:36:00.831Z,100251.97
2022-11-09T20:38:37.549Z,100247.69
2022-11-09T20:41:06.767Z,100242.38
2022-11-09T20:43:33.751Z,100242.38
2022-11-09T20:46:09.420Z,100249.56
2022-11-09T20:48:55.531Z,100241.06
2022-11-09T20:51:23.645Z,100246.72
2022-11-09T20:54:03.822Z,100244.72
2022-11-09T20:56:36.582Z,100242.25
2022-11-09T20:59:03.451Z,100245.50
2022-11-09T21:01:30.152Z,100251.91
2022-11-09T21:03:56.759Z,100250.37
2022-11-09T21:06:23.352Z,100248.50
2022-11-09T21:08:52.504Z,100245.25
2022-11-09T21:11:19.996Z,100252.88
2022-11-09T21:13:51.238Z,100245.81
2022-11-09T21:16:19.900Z,100251.47
2022-11-09T21:19:01.814Z,100250.47
2022-11-09T21:21:33.452Z,100252.44
2022-11-09T21:24:21.304Z,100243.91
2022-11-09T21:27:06.186Z,100244.25
2022-11-09T21:30:17.444Z,100252.66
2022-11-09T21:33:01.490Z,100249.00
2022-11-09T21:35:28.513Z,100248.97
2022-11-09T21:40:30.904Z,100245.91
2022-11-09T21:42:57.490Z,100249.41
2022-11-09T21:45:24.041Z,100241.31
2022-11-09T21:53:01.176Z,100243.87
2022-11-09T21:55:27.932Z,100246.06
2022-11-09T21:58:52.454Z,100248.41
2022-11-09T22:02:03.820Z,100245.16
2022-11-09T22:19:12.780Z,100234.44
2022-11-09T22:21:42.240Z,100233.97
2022-11-09T22:24:10.117Z,100236.91
2022-11-09T22:26:38.070Z,100236.66
2022-11-09T22:29:05.367Z,100234.72
2022-11-09T22:31:31.909Z,100234.56
2022-11-09T22:34:18.324Z,100230.13
2022-11-09T22:37:03.620Z,100237.22
2022-11-09T22:39:47.495Z,100239.66
2022-11-09T22:42:14.552Z,100235.00
2022-11-09T22:44:41.103Z,100228.38
2022-11-09T22:47:07.759Z,100231.09
2022-11-09T22:49:36.609Z,100225.03
2022-11-09T22:52:28.053Z,100226.87
2022-11-09T22:54:54.567Z,100225.09
2022-11-09T22:57:21.102Z,100221.91
2022-11-09T22:59:50.350Z,100219.09
2022-11-09T23:03:00.406Z,100226.87
2022-11-09T23:37:40.543Z,100231.53
2022-11-09T23:40:07.970Z,100217.50
2022-11-09T23:42:34.499Z,100223.78
2022-11-09T23:45:01.130Z,100225.25
2022-11-09T23:47:27.851Z,100223.66
2022-11-09T23:49:54.452Z,100222.09
2022-11-09T23:52:21.035Z,100224.94
2022-11-09T23:54:47.768Z,100222.16
2022-11-09T23:57:14.368Z,100221.97
2022-11-09T23:59:40.909Z,100219.59
